sensor_id;sensor_type;location;lat;lon;timestamp;pressure;altitude;pressure_sealevel;temperature
74321;BMP280;62738;45.772;4.804;2023-05-07T00:00:18;99490.81;;;21.66
74321;BMP280;62738;45.772;4.804;2023-05-07T00:02:46;99489.34;;;21.84
74321;BMP280;62738;45.772;4.804;2023-05-07T00:05:13;99487.91;;;21.83
74321;BMP280;62738;45.772;4.804;2023-05-07T00:07:40;99490.09;;;22.07
74321;BMP280;62738;45.772;4.804;2023-05-07T00:10:07;99504.84;;;21.83
74321;BMP280;62738;45.772;4.804;2023-05-07T00:12:34;99511.59;;;21.94
74321;BMP280;62738;45.772;4.804;2023-05-07T00:15:03;99511.81;;;21.80
74321;BMP280;62738;45.772;4.804;2023-05-07T00:17:30;99518.78;;;21.99
74321;BMP280;62738;45.772;4.804;2023-05-07T00:19:57;99516.47;;;22.13
74321;BMP280;62738;45.772;4.804;2023-05-07T00:22:23;99528.41;;;21.90
74321;BMP280;62738;45.772;4.804;2023-05-07T00:24:50;99540.97;;;21.67
74321;BMP280;62738;45.772;4.804;2023-05-07T00:27:16;99559.88;;;21.06
74321;BMP280;62738;45.772;4.804;2023-05-07T00:29:43;99557.72;;;20.33
74321;BMP280;62738;45.772;4.804;2023-05-07T00:32:10;99552.34;;;20.06
74321;BMP280;62738;45.772;4.804;2023-05-07T00:34:36;99557.72;;;19.84
74321;BMP280;62738;45.772;4.804;2023-05-07T00:37:03;99554.09;;;19.98
74321;BMP280;62738;45.772;4.804;2023-05-07T00:39:32;99561.88;;;19.99
74321;BMP280;62738;45.772;4.804;2023-05-07T00:41:59;99561.25;;;20.01
74321;BMP280;62738;45.772;4.804;2023-05-07T00:44:27;99574.56;;;19.67
74321;BMP280;62738;45.772;4.804;2023-05-07T00:46:55;99589.78;;;19.77
74321;BMP280;62738;45.772;4.804;2023-05-07T00:49:32;99592.25;;;19.85
74321;BMP280;62738;45.772;4.804;2023-05-07T00:52:02;99596.22;;;19.95
74321;BMP280;62738;45.772;4.804;2023-05-07T00:54:28;99593.22;;;19.91
74321;BMP280;62738;45.772;4.804;2023-05-07T00:56:55;99591.38;;;20.14
74321;BMP280;62738;45.772;4.804;2023-05-07T00:59:23;99579.63;;;20.35
74321;BMP280;62738;45.772;4.804;2023-05-07T01:04:27;99568.69;;;20.96
74321;BMP280;62738;45.772;4.804;2023-05-07T01:06:56;99569.56;;;21.01
74321;BMP280;62738;45.772;4.804;2023-05-07T01:09:24;99582.25;;;21.19
74321;BMP280;62738;45.772;4.804;2023-05-07T01:11:51;99580.91;;;21.40
74321;BMP280;62738;45.772;4.804;2023-05-07T01:14:19;99578.63;;;21.34
74321;BMP280;62738;45.772;4.804;2023-05-07T01:16:47;99573.91;;;21.41
74321;BMP280;62738;45.772;4.804;2023-05-07T01:19:16;99579.00;;;20.72
74321;BMP280;62738;45.772;4.804;2023-05-07T01:21:46;99587.03;;;20.79
74321;BMP280;62738;45.772;4.804;2023-05-07T01:24:14;99576.16;;;21.07
74321;BMP280;62738;45.772;4.804;2023-05-07T01:26:42;99569.47;;;21.16
74321;BMP280;62738;45.772;4.804;2023-05-07T01:29:09;99575.09;;;21.73
74321;BMP280;62738;45.772;4.804;2023-05-07T01:31:37;99570.34;;;22.00
74321;BMP280;62738;45.772;4.804;2023-05-07T01:34:05;99566.53;;;21.91
74321;BMP280;62738;45.772;4.804;2023-05-07T01:36:33;99581.22;;;22.07
74321;BMP280;62738;45.772;4.804;2023-05-07T01:39:01;99575.41;;;22.23
74321;BMP280;62738;45.772;4.804;2023-05-07T01:41:28;99581.81;;;22.04
74321;BMP280;62738;45.772;4.804;2023-05-07T01:43:56;99580.72;;;22.13
74321;BMP280;62738;45.772;4.804;2023-05-07T01:46:24;99585.78;;;22.38
74321;BMP280;62738;45.772;4.804;2023-05-07T01:48:52;99580.72;;;22.13
74321;BMP280;62738;45.772;4.804;2023-05-07T01:51:20;99587.16;;;21.95
74321;BMP280;62738;45.772;4.804;2023-05-07T01:53:48;99577.06;;;21.88
74321;BMP280;62738;45.772;4.804;2023-05-07T01:56:17;99579.22;;;21.70
74321;BMP280;62738;45.772;4.804;2023-05-07T01:58:45;99582.59;;;21.10
74321;BMP280;62738;45.772;4.804;2023-05-07T02:01:13;99591.19;;;20.94
74321;BMP280;62738;45.772;4.804;2023-05-07T02:03:40;99586.22;;;21.12
74321;BMP280;62738;45.772;4.804;2023-05-07T02:06:07;99585.88;;;21.02
74321;BMP280;62738;45.772;4.804;2023-05-07T02:08:34;99590.44;;;20.93
74321;BMP280;62738;45.772;4.804;2023-05-07T02:11:01;99580.44;;;21.08
74321;BMP280;62738;45.772;4.804;2023-05-07T02:13:30;99573.91;;;21.04
74321;BMP280;62738;45.772;4.804;2023-05-07T02:15:57;99568.38;;;20.88
74321;BMP280;62738;45.772;4.804;2023-05-07T02:18:24;99557.03;;;20.68
74321;BMP280;62738;45.772;4.804;2023-05-07T02:20:50;99558.84;;;21.15
74321;BMP280;62738;45.772;4.804;2023-05-07T02:23:17;99549.97;;;21.22
74321;BMP280;62738;45.772;4.804;2023-05-07T02:25:43;99554.38;;;21.27
74321;BMP280;62738;45.772;4.804;2023-05-07T02:28:10;99573.28;;;21.42
74321;BMP280;62738;45.772;4.804;2023-05-07T02:30:37;99563.22;;;21.57
74321;BMP280;62738;45.772;4.804;2023-05-07T02:33:04;99554.91;;;21.61
74321;BMP280;62738;45.772;4.804;2023-05-07T02:35:31;99568.78;;;21.55
74321;BMP280;62738;45.772;4.804;2023-05-07T02:37:58;99574.72;;;21.63
74321;BMP280;62738;45.772;4.804;2023-05-07T02:40:24;99564.31;;;21.87
74321;BMP280;62738;45.772;4.804;2023-05-07T02:42:51;99563.50;;;21.85
74321;BMP280;62738;45.772;4.804;2023-05-07T02:45:18;99554.16;;;21.80
74321;BMP280;62738;45.772;4.804;2023-05-07T02:47:44;99546.56;;;21.65
74321;BMP280;62738;45.772;4.804;2023-05-07T02:50:11;99557.00;;;21.61
74321;BMP280;62738;45.772;4.804;2023-05-07T02:52:38;99554.78;;;21.39
74321;BMP280;62738;45.772;4.804;2023-05-07T02:55:05;99544.19;;;21.38
74321;BMP280;62738;45.772;4.804;2023-05-07T02:57:32;99543.81;;;21.67
74321;BMP280;62738;45.772;4.804;2023-05-07T02:59:59;99546.59;;;22.07
74321;BMP280;62738;45.772;4.804;2023-05-07T03:02:25;99537.91;;;22.01
74321;BMP280;62738;45.772;4.804;2023-05-07T03:04:52;99533.97;;;21.68
74321;BMP280;62738;45.772;4.804;2023-05-07T03:07:19;99548.66;;;21.45
74321;BMP280;62738;45.772;4.804;2023-05-07T03:09:46;99562.56;;;20.84
74321;BMP280;62738;45.772;4.804;2023-05-07T03:12:13;99568.94;;;20.67
74321;BMP280;62738;45.772;4.804;2023-05-07T03:14:40;99558.09;;;21.14
74321;BMP280;62738;45.772;4.804;2023-05-07T03:17:06;99558.34;;;21.20
74321;BMP280;62738;45.772;4.804;2023-05-07T03:19:33;99562.66;;;21.23
74321;BMP280;62738;45.772;4.804;2023-05-07T03:21:59;99568.50;;;21.10
74321;BMP280;62738;45.772;4.804;2023-05-07T03:24:26;99583.63;;;20.99
74321;BMP280;62738;45.772;4.804;2023-05-07T03:26:53;99587.59;;;21.11
74321;BMP280;62738;45.772;4.804;2023-05-07T03:29:19;99590.63;;;21.35
74321;BMP280;62738;45.772;4.804;2023-05-07T03:31:46;99582.09;;;21.33
74321;BMP280;62738;45.772;4.804;2023-05-07T03:34:13;99583.00;;;20.49
74321;BMP280;62738;45.772;4.804;2023-05-07T03:36:39;99585.44;;;19.74
74321;BMP280;62738;45.772;4.804;2023-05-07T03:39:06;99574.44;;;19.65
74321;BMP280;62738;45.772;4.804;2023-05-07T03:41:33;99573.34;;;19.87
74321;BMP280;62738;45.772;4.804;2023-05-07T03:44:00;99580.16;;;19.98
74321;BMP280;62738;45.772;4.804;2023-05-07T03:46:26;99597.06;;;19.82
74321;BMP280;62738;45.772;4.804;2023-05-07T03:48:54;99604.94;;;19.86
74321;BMP280;62738;45.772;4.804;2023-05-07T03:51:21;99596.41;;;20.00
74321;BMP280;62738;45.772;4.804;2023-05-07T03:53:47;99604.31;;;19.87
74321;BMP280;62738;45.772;4.804;2023-05-07T03:56:14;99614.69;;;19.67
74321;BMP280;62738;45.772;4.804;2023-05-07T03:58:44;99625.78;;;19.79
74321;BMP280;62738;45.772;4.804;2023-05-07T04:01:11;99630.13;;;19.66
74321;BMP280;62738;45.772;4.804;2023-05-07T04:03:38;99633.56;;;19.49
74321;BMP280;62738;45.772;4.804;2023-05-07T04:06:05;99635.03;;;19.50
74321;BMP280;62738;45.772;4.804;2023-05-07T04:08:32;99635.13;;;19.23
74321;BMP280;62738;45.772;4.804;2023-05-07T04:10:59;99642.59;;;19.32
74321;BMP280;62738;45.772;4.804;2023-05-07T04:13:26;99643.63;;;19.25
74321;BMP280;62738;45.772;4.804;2023-05-07T04:15:55;99655.78;;;19.14
74321;BMP280;62738;45.772;4.804;2023-05-07T04:18:22;99670.72;;;19.32
74321;BMP280;62738;45.772;4.804;2023-05-07T04:20:48;99671.63;;;19.36
74321;BMP280;62738;45.772;4.804;2023-05-07T04:23:18;99674.75;;;19.58
74321;BMP280;62738;45.772;4.804;2023-05-07T04:25:45;99673.78;;;19.83
74321;BMP280;62738;45.772;4.804;2023-05-07T04:28:12;99670.53;;;19.88
74321;BMP280;62738;45.772;4.804;2023-05-07T04:30:39;99666.97;;;20.04
74321;BMP280;62738;45.772;4.804;2023-05-07T04:33:06;99668.78;;;20.28
74321;BMP280;62738;45.772;4.804;2023-05-07T04:35:33;99667.31;;;20.43
74321;BMP280;62738;45.772;4.804;2023-05-07T04:37:59;99664.78;;;20.33
74321;BMP280;62738;45.772;4.804;2023-05-07T04:40:26;99673.63;;;19.79
74321;BMP280;62738;45.772;4.804;2023-05-07T04:42:53;99676.44;;;19.05
74321;BMP280;62738;45.772;4.804;2023-05-07T04:45:20;99680.31;;;19.27
74321;BMP280;62738;45.772;4.804;2023-05-07T04:47:47;99677.38;;;19.25
74321;BMP280;62738;45.772;4.804;2023-05-07T04:50:14;99679.03;;;19.30
74321;BMP280;62738;45.772;4.804;2023-05-07T04:52:40;99681.84;;;19.00
74321;BMP280;62738;45.772;4.804;2023-05-07T04:55:07;99684.88;;;19.05
74321;BMP280;62738;45.772;4.804;2023-05-07T04:57:34;99681.91;;;19.16
74321;BMP280;62738;45.772;4.804;2023-05-07T05:00:01;99675.63;;;19.92
74321;BMP280;62738;45.772;4.804;2023-05-07T05:02:27;99671.53;;;19.79
74321;BMP280;62738;45.772;4.804;2023-05-07T05:04:54;99671.91;;;19.72
74321;BMP280;62738;45.772;4.804;2023-05-07T05:07:20;99675.97;;;20.00
74321;BMP280;62738;45.772;4.804;2023-05-07T05:09:47;99677.25;;;19.97
74321;BMP280;62738;45.772;4.804;2023-05-07T05:12:14;99675.00;;;20.09
74321;BMP280;62738;45.772;4.804;2023-05-07T05:14:40;99676.31;;;19.77
74321;BMP280;62738;45.772;4.804;2023-05-07T05:17:07;99666.44;;;19.91
74321;BMP280;62738;45.772;4.804;2023-05-07T05:19:33;99664.34;;;20.08
74321;BMP280;62738;45.772;4.804;2023-05-07T05:22:00;99674.59;;;20.17
74321;BMP280;62738;45.772;4.804;2023-05-07T05:24:31;99679.22;;;19.63
74321;BMP280;62738;45.772;4.804;2023-05-07T05:26:57;99686.53;;;19.39
74321;BMP280;62738;45.772;4.804;2023-05-07T05:29:26;99674.03;;;19.28
74321;BMP280;62738;45.772;4.804;2023-05-07T05:31:53;99679.81;;;19.46
74321;BMP280;62738;45.772;4.804;2023-05-07T05:34:19;99673.28;;;20.02
74321;BMP280;62738;45.772;4.804;2023-05-07T05:36:46;99681.13;;;20.21
74321;BMP280;62738;45.772;4.804;2023-05-07T05:39:13;99684.59;;;20.20
74321;BMP280;62738;45.772;4.804;2023-05-07T05:41:40;99684.50;;;20.33
74321;BMP280;62738;45.772;4.804;2023-05-07T05:44:07;99679.38;;;20.79
74321;BMP280;62738;45.772;4.804;2023-05-07T05:46:34;99679.81;;;20.89
74321;BMP280;62738;45.772;4.804;2023-05-07T05:49:02;99686.16;;;21.07
74321;BMP280;62738;45.772;4.804;2023-05-07T05:51:29;99686.13;;;21.23
74321;BMP280;62738;45.772;4.804;2023-05-07T05:53:55;99686.81;;;21.23
74321;BMP280;62738;45.772;4.804;2023-05-07T05:56:22;99679.50;;;21.34
74321;BMP280;62738;45.772;4.804;2023-05-07T05:58:48;99685.16;;;21.34
74321;BMP280;62738;45.772;4.804;2023-05-07T06:01:17;99684.88;;;20.92
74321;BMP280;62738;45.772;4.804;2023-05-07T06:03:44;99679.41;;;20.97
74321;BMP280;62738;45.772;4.804;2023-05-07T06:06:10;99677.66;;;21.23
74321;BMP280;62738;45.772;4.804;2023-05-07T06:08:37;99678.69;;;21.31
74321;BMP280;62738;45.772;4.804;2023-05-07T06:11:03;99678.63;;;21.67
74321;BMP280;62738;45.772;4.804;2023-05-07T06:13:30;99672.47;;;21.72
74321;BMP280;62738;45.772;4.804;2023-05-07T06:15:57;99683.75;;;21.72
74321;BMP280;62738;45.772;4.804;2023-05-07T06:18:23;99682.03;;;21.63
74321;BMP280;62738;45.772;4.804;2023-05-07T06:20:51;99674.66;;;21.74
74321;BMP280;62738;45.772;4.804;2023-05-07T06:23:18;99678.31;;;22.16
74321;BMP280;62738;45.772;4.804;2023-05-07T06:25:51;99685.75;;;22.27
74321;BMP280;62738;45.772;4.804;2023-05-07T06:28:17;99685.69;;;22.44
74321;BMP280;62738;45.772;4.804;2023-05-07T06:30:44;99683.06;;;22.31
74321;BMP280;62738;45.772;4.804;2023-05-07T06:33:11;99694.94;;;22.27
74321;BMP280;62738;45.772;4.804;2023-05-07T06:35:38;99699.88;;;22.27
74321;BMP280;62738;45.772;4.804;2023-05-07T06:38:04;99702.13;;;22.50
74321;BMP280;62738;45.772;4.804;2023-05-07T06:40:31;99702.38;;;22.17
74321;BMP280;62738;45.772;4.804;2023-05-07T06:42:58;99694.22;;;22.27
74321;BMP280;62738;45.772;4.804;2023-05-07T06:45:24;99701.13;;;22.02
74321;BMP280;62738;45.772;4.804;2023-05-07T06:47:51;99701.38;;;21.71
74321;BMP280;62738;45.772;4.804;2023-05-07T06:50:18;99696.50;;;21.54
74321;BMP280;62738;45.772;4.804;2023-05-07T06:52:44;99700.75;;;21.92
74321;BMP280;62738;45.772;4.804;2023-05-07T06:55:11;99706.69;;;22.39
74321;BMP280;62738;45.772;4.804;2023-05-07T06:57:38;99696.69;;;22.56
74321;BMP280;62738;45.772;4.804;2023-05-07T07:00:05;99697.69;;;22.45
74321;BMP280;62738;45.772;4.804;2023-05-07T07:02:36;99699.88;;;22.46
74321;BMP280;62738;45.772;4.804;2023-05-07T07:05:03;99690.81;;;22.72
74321;BMP280;62738;45.772;4.804;2023-05-07T07:07:30;99685.16;;;22.50
74321;BMP280;62738;45.772;4.804;2023-05-07T07:09:56;99682.59;;;22.17
74321;BMP280;62738;45.772;4.804;2023-05-07T07:12:23;99685.44;;;21.99
74321;BMP280;62738;45.772;4.804;2023-05-07T07:14:52;99687.41;;;21.75
74321;BMP280;62738;45.772;4.804;2023-05-07T07:17:20;99682.16;;;21.67
74321;BMP280;62738;45.772;4.804;2023-05-07T07:19:47;99687.44;;;21.94
74321;BMP280;62738;45.772;4.804;2023-05-07T07:22:13;99690.91;;;21.93
74321;BMP280;62738;45.772;4.804;2023-05-07T07:24:43;99696.50;;;21.54
74321;BMP280;62738;45.772;4.804;2023-05-07T07:27:09;99695.22;;;21.76
74321;BMP280;62738;45.772;4.804;2023-05-07T07:29:36;99702.97;;;21.76
74321;BMP280;62738;45.772;4.804;2023-05-07T07:32:03;99703.69;;;22.14
74321;BMP280;62738;45.772;4.804;2023-05-07T07:34:30;99701.75;;;22.01
74321;BMP280;62738;45.772;4.804;2023-05-07T07:36:56;99706.06;;;22.21
74321;BMP280;62738;45.772;4.804;2023-05-07T07:39:23;99704.78;;;22.26
74321;BMP280;62738;45.772;4.804;2023-05-07T07:41:49;99709.53;;;22.61
74321;BMP280;62738;45.772;4.804;2023-05-07T07:44:16;99705.53;;;22.68
74321;BMP280;62738;45.772;4.804;2023-05-07T07:46:43;99706.22;;;22.67
74321;BMP280;62738;45.772;4.804;2023-05-07T07:49:10;99710.88;;;22.38
74321;BMP280;62738;45.772;4.804;2023-05-07T07:51:36;99707.09;;;21.73
74321;BMP280;62738;45.772;4.804;2023-05-07T07:54:03;99717.22;;;21.80
74321;BMP280;62738;45.772;4.804;2023-05-07T07:56:32;99710.94;;;21.81
74321;BMP280;62738;45.772;4.804;2023-05-07T07:59:00;99721.31;;;21.57
74321;BMP280;62738;45.772;4.804;2023-05-07T08:01:27;99723.94;;;21.88
74321;BMP280;62738;45.772;4.804;2023-05-07T08:03:54;99727.00;;;21.77
74321;BMP280;62738;45.772;4.804;2023-05-07T08:06:21;99727.97;;;22.03
74321;BMP280;62738;45.772;4.804;2023-05-07T08:08:48;99736.59;;;21.87
74321;BMP280;62738;45.772;4.804;2023-05-07T08:11:14;99745.22;;;21.91
74321;BMP280;62738;45.772;4.804;2023-05-07T08:13:41;99743.38;;;22.18
74321;BMP280;62738;45.772;4.804;2023-05-07T08:16:08;99753.22;;;22.17
74321;BMP280;62738;45.772;4.804;2023-05-07T08:18:34;99764.69;;;22.21
74321;BMP280;62738;45.772;4.804;2023-05-07T08:21:01;99760.63;;;22.26
74321;BMP280;62738;45.772;4.804;2023-05-07T08:23:28;99766.53;;;21.94
74321;BMP280;62738;45.772;4.804;2023-05-07T08:25:54;99764.56;;;21.99
74321;BMP280;62738;45.772;4.804;2023-05-07T08:28:21;99777.75;;;21.92
74321;BMP280;62738;45.772;4.804;2023-05-07T08:30:48;99775.19;;;21.81
74321;BMP280;62738;45.772;4.804;2023-05-07T08:33:14;99776.06;;;21.15
74321;BMP280;62738;45.772;4.804;2023-05-07T08:35:41;99776.19;;;20.68
74321;BMP280;62738;45.772;4.804;2023-05-07T08:38:08;99784.09;;;20.24
74321;BMP280;62738;45.772;4.804;2023-05-07T08:40:38;99789.47;;;19.73
74321;BMP280;62738;45.772;4.804;2023-05-07T08:43:06;99798.31;;;19.81
74321;BMP280;62738;45.772;4.804;2023-05-07T08:45:34;99798.78;;;19.91
74321;BMP280;62738;45.772;4.804;2023-05-07T08:48:08;99791.75;;;20.53
74321;BMP280;62738;45.772;4.804;2023-05-07T09:18:59;99846.13;;;18.70
74321;BMP280;62738;45.772;4.804;2023-05-07T09:21:29;99852.13;;;18.12
74321;BMP280;62738;45.772;4.804;2023-05-07T09:23:56;99843.91;;;18.41
74321;BMP280;62738;45.772;4.804;2023-05-07T09:26:23;99837.72;;;18.84
74321;BMP280;62738;45.772;4.804;2023-05-07T09:28:51;99847.09;;;18.88
74321;BMP280;62738;45.772;4.804;2023-05-07T09:31:18;99852.28;;;18.28
74321;BMP280;62738;45.772;4.804;2023-05-07T09:33:47;99864.06;;;18.13
74321;BMP280;62738;45.772;4.804;2023-05-07T09:36:13;99858.63;;;18.28
74321;BMP280;62738;45.772;4.804;2023-05-07T09:38:40;99855.72;;;18.79
74321;BMP280;62738;45.772;4.804;2023-05-07T09:41:12;99860.47;;;18.24
74321;BMP280;62738;45.772;4.804;2023-05-07T09:43:40;99863.47;;;18.92
74321;BMP280;62738;45.772;4.804;2023-05-07T09:46:11;99863.09;;;18.33
74321;BMP280;62738;45.772;4.804;2023-05-07T09:48:40;99871.22;;;17.90
74321;BMP280;62738;45.772;4.804;2023-05-07T09:51:25;99861.28;;;18.13
74321;BMP280;62738;45.772;4.804;2023-05-07T09:53:53;99865.31;;;18.74
74321;BMP280;62738;45.772;4.804;2023-05-07T09:56:21;99879.88;;;17.94
74321;BMP280;62738;45.772;4.804;2023-05-07T09:58:48;99875.88;;;17.86
74321;BMP280;62738;45.772;4.804;2023-05-07T10:01:17;99880.88;;;18.24
74321;BMP280;62738;45.772;4.804;2023-05-07T10:03:46;99870.94;;;18.74
74321;BMP280;62738;45.772;4.804;2023-05-07T10:06:14;99881.31;;;18.71
74321;BMP280;62738;45.772;4.804;2023-05-07T10:08:42;99885.19;;;18.39
74321;BMP280;62738;45.772;4.804;2023-05-07T10:11:09;99889.75;;;18.58
74321;BMP280;62738;45.772;4.804;2023-05-07T10:13:36;99884.16;;;20.25
74321;BMP280;62738;45.772;4.804;2023-05-07T10:16:04;99882.75;;;20.56
74321;BMP280;62738;45.772;4.804;2023-05-07T10:18:32;99885.19;;;21.43
74321;BMP280;62738;45.772;4.804;2023-05-07T10:21:19;99884.34;;;21.23
74321;BMP280;62738;45.772;4.804;2023-05-07T10:23:59;99896.41;;;21.92
74321;BMP280;62738;45.772;4.804;2023-05-07T10:26:28;99893.66;;;21.43
74321;BMP280;62738;45.772;4.804;2023-05-07T10:29:03;99889.19;;;22.25
74321;BMP280;62738;45.772;4.804;2023-05-07T10:34:23;99894.06;;;22.42
74321;BMP280;62738;45.772;4.804;2023-05-07T10:36:50;99893.88;;;23.15
74321;BMP280;62738;45.772;4.804;2023-05-07T10:39:19;99894.53;;;22.93
74321;BMP280;62738;45.772;4.804;2023-05-07T10:41:47;99890.84;;;22.89
74321;BMP280;62738;45.772;4.804;2023-05-07T10:44:30;99897.34;;;21.81
74321;BMP280;62738;45.772;4.804;2023-05-07T10:52:16;99898.66;;;21.45
74321;BMP280;62738;45.772;4.804;2023-05-07T10:54:43;99900.31;;;20.85
74321;BMP280;62738;45.772;4.804;2023-05-07T10:57:36;99905.47;;;20.75
74321;BMP280;62738;45.772;4.804;2023-05-07T11:00:04;99911.38;;;20.05
74321;BMP280;62738;45.772;4.804;2023-05-07T11:03:04;99921.78;;;18.66
74321;BMP280;62738;45.772;4.804;2023-05-07T11:05:33;99909.84;;;19.45
74321;BMP280;62738;45.772;4.804;2023-05-07T11:08:04;99910.00;;;18.81
74321;BMP280;62738;45.772;4.804;2023-05-07T11:10:51;99902.91;;;20.50
74321;BMP280;62738;45.772;4.804;2023-05-07T11:13:18;99924.69;;;18.29
74321;BMP280;62738;45.772;4.804;2023-05-07T11:15:47;99919.91;;;18.32
74321;BMP280;62738;45.772;4.804;2023-05-07T11:18:15;99911.59;;;18.59
74321;BMP280;62738;45.772;4.804;2023-05-07T11:20:56;99910.84;;;19.11
74321;BMP280;62738;45.772;4.804;2023-05-07T11:28:32;99925.34;;;19.06
74321;BMP280;62738;45.772;4.804;2023-05-07T11:31:03;99922.34;;;19.85
74321;BMP280;62738;45.772;4.804;2023-05-07T11:33:30;99918.66;;;19.67
74321;BMP280;62738;45.772;4.804;2023-05-07T11:35:57;99920.75;;;20.55
74321;BMP280;62738;45.772;4.804;2023-05-07T11:38:25;99929.50;;;18.91
74321;BMP280;62738;45.772;4.804;2023-05-07T11:40:52;99930.81;;;18.51
74321;BMP280;62738;45.772;4.804;2023-05-07T11:43:19;99929.91;;;18.35
74321;BMP280;62738;45.772;4.804;2023-05-07T11:45:46;99924.66;;;20.32
74321;BMP280;62738;45.772;4.804;2023-05-07T11:48:14;99917.63;;;20.33
74321;BMP280;62738;45.772;4.804;2023-05-07T11:51:00;99926.84;;;18.81
74321;BMP280;62738;45.772;4.804;2023-05-07T11:53:28;99925.03;;;19.54
74321;BMP280;62738;45.772;4.804;2023-05-07T11:55:55;99929.69;;;20.65
74321;BMP280;62738;45.772;4.804;2023-05-07T11:58:23;99933.88;;;19.62
74321;BMP280;62738;45.772;4.804;2023-05-07T12:00:52;99930.78;;;21.05
74321;BMP280;62738;45.772;4.804;2023-05-07T12:03:19;99935.75;;;19.17
74321;BMP280;62738;45.772;4.804;2023-05-07T12:05:47;99926.47;;;20.12
74321;BMP280;62738;45.772;4.804;2023-05-07T12:08:18;99939.94;;;19.16
74321;BMP280;62738;45.772;4.804;2023-05-07T12:10:47;99942.16;;;18.28
74321;BMP280;62738;45.772;4.804;2023-05-07T12:13:21;99948.53;;;18.17
74321;BMP280;62738;45.772;4.804;2023-05-07T12:15:55;99952.66;;;18.78
74321;BMP280;62738;45.772;4.804;2023-05-07T12:18:22;99942.66;;;19.14
74321;BMP280;62738;45.772;4.804;2023-05-07T12:20:49;99953.19;;;18.49
74321;BMP280;62738;45.772;4.804;2023-05-07T12:23:17;99945.28;;;18.84
74321;BMP280;62738;45.772;4.804;2023-05-07T12:25:44;99945.72;;;19.06
74321;BMP280;62738;45.772;4.804;2023-05-07T12:28:17;99933.41;;;19.95
74321;BMP280;62738;45.772;4.804;2023-05-07T12:30:45;99954.53;;;18.48
74321;BMP280;62738;45.772;4.804;2023-05-07T12:33:16;99951.03;;;18.36
74321;BMP280;62738;45.772;4.804;2023-05-07T12:35:43;99941.75;;;18.84
74321;BMP280;62738;45.772;4.804;2023-05-07T12:38:12;99950.91;;;18.34
74321;BMP280;62738;45.772;4.804;2023-05-07T12:40:50;99947.72;;;18.65
74321;BMP280;62738;45.772;4.804;2023-05-07T12:43:27;99949.56;;;18.35
74321;BMP280;62738;45.772;4.804;2023-05-07T12:45:55;99951.22;;;18.26
74321;BMP280;62738;45.772;4.804;2023-05-07T12:48:23;99950.59;;;18.92
74321;BMP280;62738;45.772;4.804;2023-05-07T12:50:51;99946.41;;;19.18
74321;BMP280;62738;45.772;4.804;2023-05-07T12:53:22;99947.25;;;19.48
74321;BMP280;62738;45.772;4.804;2023-05-07T12:55:51;99953.16;;;18.24
74321;BMP280;62738;45.772;4.804;2023-05-07T13:00:53;99964.19;;;18.45
74321;BMP280;62738;45.772;4.804;2023-05-07T13:03:49;99946.56;;;18.19
74321;BMP280;62738;45.772;4.804;2023-05-07T13:06:19;99953.34;;;18.02
74321;BMP280;62738;45.772;4.804;2023-05-07T13:08:45;99950.41;;;18.00
74321;BMP280;62738;45.772;4.804;2023-05-07T13:11:12;99956.31;;;18.30
74321;BMP280;62738;45.772;4.804;2023-05-07T13:13:40;99943.28;;;18.73
74321;BMP280;62738;45.772;4.804;2023-05-07T13:16:09;99948.25;;;17.99
74321;BMP280;62738;45.772;4.804;2023-05-07T13:18:36;99954.97;;;18.56
74321;BMP280;62738;45.772;4.804;2023-05-07T13:21:03;99956.53;;;19.37
74321;BMP280;62738;45.772;4.804;2023-05-07T13:23:30;99955.78;;;18.08
74321;BMP280;62738;45.772;4.804;2023-05-07T13:25:56;99958.22;;;19.03
74321;BMP280;62738;45.772;4.804;2023-05-07T13:28:24;99952.38;;;18.35
74321;BMP280;62738;45.772;4.804;2023-05-07T13:30:52;99951.03;;;19.00
74321;BMP280;62738;45.772;4.804;2023-05-07T13:33:19;99957.84;;;18.08
74321;BMP280;62738;45.772;4.804;2023-05-07T13:35:45;99961.59;;;18.49
74321;BMP280;62738;45.772;4.804;2023-05-07T13:38:12;99961.94;;;18.30
74321;BMP280;62738;45.772;4.804;2023-05-07T13:40:39;99963.09;;;18.89
74321;BMP280;62738;45.772;4.804;2023-05-07T13:43:06;99960.97;;;18.76
74321;BMP280;62738;45.772;4.804;2023-05-07T13:45:32;99967.31;;;18.76
74321;BMP280;62738;45.772;4.804;2023-05-07T13:47:59;99964.56;;;18.39
74321;BMP280;62738;45.772;4.804;2023-05-07T13:50:26;99962.75;;;18.32
74321;BMP280;62738;45.772;4.804;2023-05-07T13:52:56;99967.22;;;19.13
74321;BMP280;62738;45.772;4.804;2023-05-07T13:55:23;99968.56;;;18.48
74321;BMP280;62738;45.772;4.804;2023-05-07T13:57:58;99967.31;;;18.26
74321;BMP280;62738;45.772;4.804;2023-05-07T14:00:25;99961.75;;;18.90
74321;BMP280;62738;45.772;4.804;2023-05-07T14:02:53;99963.69;;;19.67
74321;BMP280;62738;45.772;4.804;2023-05-07T14:05:20;99967.09;;;18.72
74321;BMP280;62738;45.772;4.804;2023-05-07T14:07:47;99973.72;;;18.40
74321;BMP280;62738;45.772;4.804;2023-05-07T14:10:15;99970.59;;;18.98
74321;BMP280;62738;45.772;4.804;2023-05-07T14:12:42;99972.22;;;18.25
74321;BMP280;62738;45.772;4.804;2023-05-07T14:15:09;99975.81;;;18.39
74321;BMP280;62738;45.772;4.804;2023-05-07T14:17:36;99961.63;;;19.68
74321;BMP280;62738;45.772;4.804;2023-05-07T14:20:03;99959.44;;;19.39
74321;BMP280;62738;45.772;4.804;2023-05-07T14:22:30;99974.47;;;18.40
74321;BMP280;62738;45.772;4.804;2023-05-07T14:24:56;99975.59;;;18.86
74321;BMP280;62738;45.772;4.804;2023-05-07T14:27:39;99973.41;;;18.84
74321;BMP280;62738;45.772;4.804;2023-05-07T14:30:06;99981.72;;;18.57
74321;BMP280;62738;45.772;4.804;2023-05-07T14:32:34;99964.22;;;19.36
74321;BMP280;62738;45.772;4.804;2023-05-07T14:35:00;99974.19;;;18.73
74321;BMP280;62738;45.772;4.804;2023-05-07T14:37:27;99973.31;;;18.57
74321;BMP280;62738;45.772;4.804;2023-05-07T14:39:54;99978.41;;;18.61
74321;BMP280;62738;45.772;4.804;2023-05-07T14:42:21;99974.59;;;19.07
74321;BMP280;62738;45.772;4.804;2023-05-07T14:44:47;99970.34;;;19.33
74321;BMP280;62738;45.772;4.804;2023-05-07T14:47:14;99981.09;;;18.84
74321;BMP280;62738;45.772;4.804;2023-05-07T14:49:45;99981.25;;;18.74
74321;BMP280;62738;45.772;4.804;2023-05-07T14:52:11;99986.81;;;19.25
74321;BMP280;62738;45.772;4.804;2023-05-07T14:54:38;99980.09;;;18.91
74321;BMP280;62738;45.772;4.804;2023-05-07T14:57:05;99972.16;;;19.40
74321;BMP280;62738;45.772;4.804;2023-05-07T14:59:33;99980.13;;;19.05